sensor_id;sensor_type;location;lat;lon;timestamp;pressure;altitude;pressure_sealevel;temperature;humidity
47883;BME280;37739;50.350;7.578;2022-12-11T00:00:36;99274.72;;;-0.85;83.12
47883;BME280;37739;50.350;7.578;2022-12-11T00:03:05;99276.13;;;-0.88;83.39
47883;BME280;37739;50.350;7.578;2022-12-11T00:05:32;99279.63;;;-0.86;83.43
47883;BME280;37739;50.350;7.578;2022-12-11T00:08:00;99281.34;;;-0.85;83.50
47883;BME280;37739;50.350;7.578;2022-12-11T00:10:28;99278.84;;;-0.85;83.44
47883;BME280;37739;50.350;7.578;2022-12-11T00:12:53;99283.69;;;-0.88;83.17
47883;BME280;37739;50.350;7.578;2022-12-11T00:15:20;99281.13;;;-1.00;83.80
47883;BME280;37739;50.350;7.578;2022-12-11T00:17:48;99286.38;;;-0.97;84.17
47883;BME280;37739;50.350;7.578;2022-12-11T00:20:17;99286.94;;;-0.89;83.50
47883;BME280;37739;50.350;7.578;2022-12-11T00:22:44;99279.50;;;-0.88;83.08
47883;BME280;37739;50.350;7.578;2022-12-11T00:25:10;99279.63;;;-0.86;82.50
47883;BME280;37739;50.350;7.578;2022-12-11T00:27:35;99277.09;;;-0.86;82.49
47883;BME280;37739;50.350;7.578;2022-12-11T00:30:01;99271.16;;;-0.87;82.52
47883;BME280;37739;50.350;7.578;2022-12-11T00:32:26;99275.13;;;-0.90;82.02
47883;BME280;37739;50.350;7.578;2022-12-11T00:34:54;99274.34;;;-0.89;82.09
47883;BME280;37739;50.350;7.578;2022-12-11T00:37:19;99273.59;;;-0.88;81.88
47883;BME280;37739;50.350;7.578;2022-12-11T00:39:47;99274.47;;;-0.88;81.98
47883;BME280;37739;50.350;7.578;2022-12-11T00:42:12;99272.69;;;-0.89;81.86
47883;BME280;37739;50.350;7.578;2022-12-11T00:44:39;99274.16;;;-0.92;81.80
47883;BME280;37739;50.350;7.578;2022-12-11T00:47:05;99273.25;;;-0.93;81.64
47883;BME280;37739;50.350;7.578;2022-12-11T00:49:33;99281.91;;;-0.89;81.76
47883;BME280;37739;50.350;7.578;2022-12-11T00:51:58;99278.63;;;-0.88;81.50
47883;BME280;37739;50.350;7.578;2022-12-11T00:54:26;99278.63;;;-0.88;81.72
47883;BME280;37739;50.350;7.578;2022-12-11T00:56:57;99278.63;;;-0.88;81.61
47883;BME280;37739;50.350;7.578;2022-12-11T00:59:24;99274.22;;;-0.91;81.27
47883;BME280;37739;50.350;7.578;2022-12-11T01:01:49;99276.88;;;-0.89;81.06
47883;BME280;37739;50.350;7.578;2022-12-11T01:04:15;99274.47;;;-0.88;81.24
47883;BME280;37739;50.350;7.578;2022-12-11T01:06:45;99277.97;;;-0.86;81.19
47883;BME280;37739;50.350;7.578;2022-12-11T01:09:13;99274.59;;;-0.86;81.56
47883;BME280;37739;50.350;7.578;2022-12-11T01:11:57;99284.00;;;-0.84;81.48
47883;BME280;37739;50.350;7.578;2022-12-11T01:14:22;99282.25;;;-0.85;81.00
47883;BME280;37739;50.350;7.578;2022-12-11T01:16:50;99289.03;;;-0.84;81.40
47883;BME280;37739;50.350;7.578;2022-12-11T01:19:15;99284.00;;;-0.84;81.33
47883;BME280;37739;50.350;7.578;2022-12-11T01:21:40;99281.47;;;-0.84;81.16
47883;BME280;37739;50.350;7.578;2022-12-11T01:24:06;99276.44;;;-0.84;81.21
47883;BME280;37739;50.350;7.578;2022-12-11T01:26:31;99279.75;;;-0.85;81.48
47883;BME280;37739;50.350;7.578;2022-12-11T01:28:59;99273.19;;;-0.83;80.87
47883;BME280;37739;50.350;7.578;2022-12-11T01:31:29;99272.19;;;-0.85;81.59
47883;BME280;37739;50.350;7.578;2022-12-11T01:33:54;99271.41;;;-0.84;81.07
47883;BME280;37739;50.350;7.578;2022-12-11T01:36:20;99266.25;;;-0.85;80.59
47883;BME280;37739;50.350;7.578;2022-12-11T01:38:47;99267.78;;;-0.87;81.00
47883;BME280;37739;50.350;7.578;2022-12-11T01:41:15;99263.84;;;-0.84;81.66
47883;BME280;37739;50.350;7.578;2022-12-11T01:43:58;99271.41;;;-0.84;81.04
47883;BME280;37739;50.350;7.578;2022-12-11T01:46:25;99274.78;;;-0.83;81.01
47883;BME280;37739;50.350;7.578;2022-12-11T01:48:53;99271.41;;;-0.84;81.47
47883;BME280;37739;50.350;7.578;2022-12-11T01:51:22;99269.00;;;-0.82;81.35
47883;BME280;37739;50.350;7.578;2022-12-11T01:53:51;99268.13;;;-0.83;81.43
47883;BME280;37739;50.350;7.578;2022-12-11T01:56:18;99264.84;;;-0.82;81.50
47883;BME280;37739;50.350;7.578;2022-12-11T01:58:52;99268.22;;;-0.81;81.14
47883;BME280;37739;50.350;7.578;2022-12-11T02:01:28;99268.13;;;-0.83;81.66
47883;BME280;37739;50.350;7.578;2022-12-11T02:03:55;99265.81;;;-0.80;81.43
47883;BME280;37739;50.350;7.578;2022-12-11T02:06:36;99256.72;;;-0.77;81.61
47883;BME280;37739;50.350;7.578;2022-12-11T02:09:07;99271.31;;;-0.73;81.05
47883;BME280;37739;50.350;7.578;2022-12-11T02:20:36;99273.38;;;-0.80;81.43
47883;BME280;37739;50.350;7.578;2022-12-11T02:26:12;99270.31;;;-0.75;81.53
47883;BME280;37739;50.350;7.578;2022-12-11T02:31:01;99268.78;;;-0.73;81.48
47883;BME280;37739;50.350;7.578;2022-12-11T02:33:57;99272.94;;;-0.74;81.60
47883;BME280;37739;50.350;7.578;2022-12-11T02:36:28;99275.47;;;-0.74;81.43
47883;BME280;37739;50.350;7.578;2022-12-11T02:38:58;99270.56;;;-0.72;81.33
47883;BME280;37739;50.350;7.578;2022-12-11T02:41:26;99265.84;;;-0.68;81.56
47883;BME280;37739;50.350;7.578;2022-12-11T02:43:54;99266.50;;;-0.70;81.24
47883;BME280;37739;50.350;7.578;2022-12-11T02:46:24;99261.34;;;-0.72;81.25
47883;BME280;37739;50.350;7.578;2022-12-11T02:48:51;99263.22;;;-0.69;81.13
47883;BME280;37739;50.350;7.578;2022-12-11T02:51:23;99260.59;;;-0.71;81.35
47883;BME280;37739;50.350;7.578;2022-12-11T02:53:55;99261.56;;;-0.69;80.93
47883;BME280;37739;50.350;7.578;2022-12-11T02:56:33;99266.63;;;-0.69;81.22
47883;BME280;37739;50.350;7.578;2022-12-11T02:59:10;99259.81;;;-0.70;80.81
47883;BME280;37739;50.350;7.578;2022-12-11T03:01:40;99257.97;;;-0.72;81.47
47883;BME280;37739;50.350;7.578;2022-12-11T03:04:10;99256.97;;;-0.74;81.63
47883;BME280;37739;50.350;7.578;2022-12-11T03:06:39;99260.47;;;-0.72;81.70
47883;BME280;37739;50.350;7.578;2022-12-11T03:09:08;99261.47;;;-0.70;81.67
47883;BME280;37739;50.350;7.578;2022-12-11T03:11:36;99266.38;;;-0.72;81.74
47883;BME280;37739;50.350;7.578;2022-12-11T03:14:02;99263.31;;;-0.68;81.82
47883;BME280;37739;50.350;7.578;2022-12-11T03:16:58;99263.44;;;-0.66;81.85
47883;BME280;37739;50.350;7.578;2022-12-11T03:19:48;99252.50;;;-0.67;81.75
47883;BME280;37739;50.350;7.578;2022-12-11T03:25:16;99260.25;;;-0.64;81.99
47883;BME280;37739;50.350;7.578;2022-12-11T03:28:09;99249.19;;;-0.66;82.04
47883;BME280;37739;50.350;7.578;2022-12-11T03:30:37;99250.09;;;-0.65;82.20
47883;BME280;37739;50.350;7.578;2022-12-11T03:33:10;99249.41;;;-0.63;82.25
47883;BME280;37739;50.350;7.578;2022-12-11T03:35:40;99257.09;;;-0.61;81.76
47883;BME280;37739;50.350;7.578;2022-12-11T03:38:31;99250.16;;;-0.64;82.27
47883;BME280;37739;50.350;7.578;2022-12-11T03:41:00;99251.81;;;-0.64;81.78
47883;BME280;37739;50.350;7.578;2022-12-11T03:43:30;99252.59;;;-0.65;82.39
47883;BME280;37739;50.350;7.578;2022-12-11T03:45:58;99248.44;;;-0.65;82.27
47883;BME280;37739;50.350;7.578;2022-12-11T03:48:29;99253.34;;;-0.66;82.62
47883;BME280;37739;50.350;7.578;2022-12-11T03:50:55;99256.75;;;-0.66;82.22
47883;BME280;37739;50.350;7.578;2022-12-11T03:53:22;99258.50;;;-0.65;82.38
47883;BME280;37739;50.350;7.578;2022-12-11T03:55:48;99261.25;;;-0.62;81.91
47883;BME280;37739;50.350;7.578;2022-12-11T03:58:20;99255.22;;;-0.64;82.46
47883;BME280;37739;50.350;7.578;2022-12-11T04:00:48;99256.31;;;-0.60;82.49
47883;BME280;37739;50.350;7.578;2022-12-11T04:03:13;99252.25;;;-0.58;82.45
47883;BME280;37739;50.350;7.578;2022-12-11T04:05:45;99254.88;;;-0.56;82.67
47883;BME280;37739;50.350;7.578;2022-12-11T04:08:11;99245.59;;;-0.57;82.73
47883;BME280;37739;50.350;7.578;2022-12-11T04:10:40;99242.41;;;-0.55;82.74
47883;BME280;37739;50.350;7.578;2022-12-11T04:13:05;99245.03;;;-0.53;82.88
47883;BME280;37739;50.350;7.578;2022-12-11T04:15:31;99239.88;;;-0.55;82.70
47883;BME280;37739;50.350;7.578;2022-12-11T04:18:01;99237.38;;;-0.55;82.80
47883;BME280;37739;50.350;7.578;2022-12-11T04:20:45;99239.88;;;-0.55;82.86
47883;BME280;37739;50.350;7.578;2022-12-11T04:23:29;99234.84;;;-0.55;83.07
47883;BME280;37739;50.350;7.578;2022-12-11T04:26:16;99234.84;;;-0.55;83.13
47883;BME280;37739;50.350;7.578;2022-12-11T04:28:42;99237.03;;;-0.71;82.76
47883;BME280;37739;50.350;7.578;2022-12-11T04:31:17;99236.38;;;-0.69;83.66
47883;BME280;37739;50.350;7.578;2022-12-11T04:33:45;99235.94;;;-0.63;83.40
47883;BME280;37739;50.350;7.578;2022-12-11T04:36:11;99244.25;;;-0.64;83.65
47883;BME280;37739;50.350;7.578;2022-12-11T04:38:37;99241.09;;;-0.62;83.58
47883;BME280;37739;50.350;7.578;2022-12-11T04:41:05;99238.59;;;-0.62;84.05
47883;BME280;37739;50.350;7.578;2022-12-11T04:43:34;99237.81;;;-0.61;83.67
47883;BME280;37739;50.350;7.578;2022-12-11T04:46:08;99242.41;;;-0.55;83.79
47883;BME280;37739;50.350;7.578;2022-12-11T04:48:36;99236.69;;;-0.52;83.61
47883;BME280;37739;50.350;7.578;2022-12-11T04:51:02;99250.94;;;-0.53;83.76
47883;BME280;37739;50.350;7.578;2022-12-11T04:53:32;99246.69;;;-0.54;83.64
47883;BME280;37739;50.350;7.578;2022-12-11T04:56:00;99250.84;;;-0.54;83.81
47883;BME280;37739;50.350;7.578;2022-12-11T04:58:29;99247.56;;;-0.53;83.93
47883;BME280;37739;50.350;7.578;2022-12-11T05:00:56;99241.75;;;-0.52;83.80
47883;BME280;37739;50.350;7.578;2022-12-11T05:03:22;99235.16;;;-0.50;84.17
47883;BME280;37739;50.350;7.578;2022-12-11T05:05:51;99233.44;;;-0.51;84.31
47883;BME280;37739;50.350;7.578;2022-12-11T05:08:20;99232.88;;;-0.47;84.03
47883;BME280;37739;50.350;7.578;2022-12-11T05:11:00;99236.50;;;-0.55;83.36
47883;BME280;37739;50.350;7.578;2022-12-11T05:13:27;99231.47;;;-0.55;84.30
47883;BME280;37739;50.350;7.578;2022-12-11T05:15:53;99220.59;;;-0.54;84.25
47883;BME280;37739;50.350;7.578;2022-12-11T05:18:21;99225.09;;;-0.50;84.00
47883;BME280;37739;50.350;7.578;2022-12-11T05:21:00;99218.50;;;-0.48;83.99
47883;BME280;37739;50.350;7.578;2022-12-11T05:23:29;99218.63;;;-0.47;84.11
47883;BME280;37739;50.350;7.578;2022-12-11T05:25:57;99223.91;;;-0.44;83.81
47883;BME280;37739;50.350;7.578;2022-12-11T05:28:24;99227.94;;;-0.46;83.55
47883;BME280;37739;50.350;7.578;2022-12-11T05:31:15;99220.50;;;-0.44;83.43
47883;BME280;37739;50.350;7.578;2022-12-11T05:33:46;99223.03;;;-0.44;83.59
47883;BME280;37739;50.350;7.578;2022-12-11T05:36:27;99231.47;;;-0.44;83.37
47883;BME280;37739;50.350;7.578;2022-12-11T05:38:53;99231.47;;;-0.44;83.24
47883;BME280;37739;50.350;7.578;2022-12-11T05:41:24;99232.31;;;-0.43;83.31
47883;BME280;37739;50.350;7.578;2022-12-11T05:43:50;99223.03;;;-0.44;82.92
47883;BME280;37739;50.350;7.578;2022-12-11T05:46:21;99219.59;;;-0.45;83.36
47883;BME280;37739;50.350;7.578;2022-12-11T05:48:51;99215.56;;;-0.43;83.34
47883;BME280;37739;50.350;7.578;2022-12-11T05:51:18;99212.16;;;-0.43;83.07
47883;BME280;37739;50.350;7.578;2022-12-11T05:53:48;99220.59;;;-0.43;83.41
47883;BME280;37739;50.350;7.578;2022-12-11T05:56:16;99216.44;;;-0.42;83.24
47883;BME280;37739;50.350;7.578;2022-12-11T05:58:45;99214.00;;;-0.41;83.31
47883;BME280;37739;50.350;7.578;2022-12-11T06:01:22;99208.97;;;-0.41;83.73
47883;BME280;37739;50.350;7.578;2022-12-11T06:03:50;99208.97;;;-0.41;83.95
47883;BME280;37739;50.350;7.578;2022-12-11T06:06:18;99213.16;;;-0.41;83.40
47883;BME280;37739;50.350;7.578;2022-12-11T06:08:43;99205.47;;;-0.43;83.38
47883;BME280;37739;50.350;7.578;2022-12-11T06:11:12;99210.50;;;-0.43;83.75
47883;BME280;37739;50.350;7.578;2022-12-11T06:13:38;99205.38;;;-0.44;83.67
47883;BME280;37739;50.350;7.578;2022-12-11T06:16:09;99207.91;;;-0.44;83.68
47883;BME280;37739;50.350;7.578;2022-12-11T06:18:40;99211.97;;;-0.46;83.35
47883;BME280;37739;50.350;7.578;2022-12-11T06:21:32;99200.34;;;-0.44;83.51
47883;BME280;37739;50.350;7.578;2022-12-11T06:24:01;99208.78;;;-0.44;83.53
47883;BME280;37739;50.350;7.578;2022-12-11T06:26:27;99205.28;;;-0.46;83.60
47883;BME280;37739;50.350;7.578;2022-12-11T06:28:55;99197.47;;;-0.49;83.67
47883;BME280;37739;50.350;7.578;2022-12-11T06:31:21;99196.84;;;-0.46;83.72
47883;BME280;37739;50.350;7.578;2022-12-11T06:33:49;99197.81;;;-0.44;83.50
47883;BME280;37739;50.350;7.578;2022-12-11T06:36:20;99198.59;;;-0.45;83.68
47883;BME280;37739;50.350;7.578;2022-12-11T06:38:50;99204.50;;;-0.45;83.73
47883;BME280;37739;50.350;7.578;2022-12-11T06:41:15;99199.38;;;-0.46;83.78
47883;BME280;37739;50.350;7.578;2022-12-11T06:43:43;99207.91;;;-0.44;83.81
47883;BME280;37739;50.350;7.578;2022-12-11T06:46:14;99214.47;;;-0.46;83.77
47883;BME280;37739;50.350;7.578;2022-12-11T06:48:42;99211.97;;;-0.46;84.07
47883;BME280;37739;50.350;7.578;2022-12-11T06:51:15;99211.41;;;-0.42;84.01
47883;BME280;37739;50.350;7.578;2022-12-11T06:53:48;99209.88;;;-0.40;83.85
47883;BME280;37739;50.350;7.578;2022-12-11T06:56:17;99203.19;;;-0.40;83.86
47883;BME280;37739;50.350;7.578;2022-12-11T06:58:45;99199.13;;;-0.37;83.62
47883;BME280;37739;50.350;7.578;2022-12-11T07:01:18;99197.28;;;-0.40;83.84
47883;BME280;37739;50.350;7.578;2022-12-11T07:03:45;99206.44;;;-0.41;84.08
47883;BME280;37739;50.350;7.578;2022-12-11T07:06:13;99206.44;;;-0.41;84.65
47883;BME280;37739;50.350;7.578;2022-12-11T07:08:41;99198.88;;;-0.41;84.11
47883;BME280;37739;50.350;7.578;2022-12-11T07:11:09;99202.94;;;-0.43;84.39
47883;BME280;37739;50.350;7.578;2022-12-11T07:13:35;99198.69;;;-0.44;84.42
47883;BME280;37739;50.350;7.578;2022-12-11T07:16:01;99205.47;;;-0.43;84.66
47883;BME280;37739;50.350;7.578;2022-12-11T07:18:38;99194.53;;;-0.43;84.64
47883;BME280;37739;50.350;7.578;2022-12-11T07:21:06;99199.44;;;-0.45;84.45
47883;BME280;37739;50.350;7.578;2022-12-11T07:23:33;99201.34;;;-0.42;84.71
47883;BME280;37739;50.350;7.578;2022-12-11T07:26:05;99198.88;;;-0.41;84.79
47883;BME280;37739;50.350;7.578;2022-12-11T07:28:31;99198.13;;;-0.40;84.75
47883;BME280;37739;50.350;7.578;2022-12-11T07:30:57;99201.75;;;-0.36;84.90
47883;BME280;37739;50.350;7.578;2022-12-11T07:33:25;99197.59;;;-0.35;84.68
47883;BME280;37739;50.350;7.578;2022-12-11T07:35:53;99198.25;;;-0.38;84.37
47883;BME280;37739;50.350;7.578;2022-12-11T07:38:20;99200.78;;;-0.38;84.73
47883;BME280;37739;50.350;7.578;2022-12-11T07:40:48;99205.03;;;-0.37;84.59
47883;BME280;37739;50.350;7.578;2022-12-11T07:43:18;99205.16;;;-0.35;84.69
47883;BME280;37739;50.350;7.578;2022-12-11T07:45:44;99202.63;;;-0.35;84.90
47883;BME280;37739;50.350;7.578;2022-12-11T07:48:09;99201.75;;;-0.36;85.02
47883;BME280;37739;50.350;7.578;2022-12-11T07:50:34;99209.44;;;-0.34;84.57
47883;BME280;37739;50.350;7.578;2022-12-11T07:53:00;99207.09;;;-0.31;84.59
47883;BME280;37739;50.350;7.578;2022-12-11T07:55:27;99212.25;;;-0.30;84.82
47883;BME280;37739;50.350;7.578;2022-12-11T07:57:55;99206.47;;;-0.29;84.63
47883;BME280;37739;50.350;7.578;2022-12-11T08:00:20;99208.09;;;-0.29;85.24
47883;BME280;37739;50.350;7.578;2022-12-11T08:02:48;99208.34;;;-0.38;85.63
47883;BME280;37739;50.350;7.578;2022-12-11T08:05:15;99208.75;;;-0.32;85.73
47883;BME280;37739;50.350;7.578;2022-12-11T08:07:43;99208.66;;;-0.33;86.06
47883;BME280;37739;50.350;7.578;2022-12-11T08:10:08;99211.28;;;-0.44;86.60
47883;BME280;37739;50.350;7.578;2022-12-11T08:12:34;99204.59;;;-0.31;86.22
47883;BME280;37739;50.350;7.578;2022-12-11T08:15:01;99208.31;;;-0.26;85.35
47883;BME280;37739;50.350;7.578;2022-12-11T08:17:27;99212.13;;;-0.20;85.65
47883;BME280;37739;50.350;7.578;2022-12-11T08:19:52;99213.88;;;-0.18;84.87
47883;BME280;37739;50.350;7.578;2022-12-11T08:22:17;99214.00;;;-0.17;85.15
47883;BME280;37739;50.350;7.578;2022-12-11T08:24:45;99212.34;;;-0.16;84.70
47883;BME280;37739;50.350;7.578;2022-12-11T08:27:13;99205.88;;;-0.13;85.47
47883;BME280;37739;50.350;7.578;2022-12-11T08:29:38;99212.66;;;-0.12;85.24
47883;BME280;37739;50.350;7.578;2022-12-11T08:32:08;99207.72;;;-0.10;84.76
47883;BME280;37739;50.350;7.578;2022-12-11T08:34:33;99207.84;;;-0.09;85.22
47883;BME280;37739;50.350;7.578;2022-12-11T08:36:59;99203.88;;;-0.05;84.80
47883;BME280;37739;50.350;7.578;2022-12-11T08:39:24;99213.97;;;-0.05;84.50
47883;BME280;37739;50.350;7.578;2022-12-11T08:41:50;99209.03;;;-0.04;84.49
47883;BME280;37739;50.350;7.578;2022-12-11T08:44:15;99207.38;;;-0.03;84.31
47883;BME280;37739;50.350;7.578;2022-12-11T08:46:43;99215.72;;;-0.04;84.69
47883;BME280;37739;50.350;7.578;2022-12-11T08:49:09;99216.81;;;-0.01;84.37
47883;BME280;37739;50.350;7.578;2022-12-11T08:51:34;99223.63;;;0.01;84.61
47883;BME280;37739;50.350;7.578;2022-12-11T08:54:02;99220.22;;;0.00;84.49
47883;BME280;37739;50.350;7.578;2022-12-11T08:56:28;99217.69;;;0.00;84.78
47883;BME280;37739;50.350;7.578;2022-12-11T08:58:54;99210.22;;;0.02;84.63
47883;BME280;37739;50.350;7.578;2022-12-11T09:01:24;99208.59;;;0.02;84.63
47883;BME280;37739;50.350;7.578;2022-12-11T09:03:51;99209.56;;;0.04;84.78
47883;BME280;37739;50.350;7.578;2022-12-11T09:06:19;99211.41;;;0.07;84.43
47883;BME280;37739;50.350;7.578;2022-12-11T09:08:46;99214.91;;;0.09;84.80
47883;BME280;37739;50.350;7.578;2022-12-11T09:11:15;99209.41;;;0.14;84.48
47883;BME280;37739;50.350;7.578;2022-12-11T09:13:41;99209.53;;;0.16;84.44
47883;BME280;37739;50.350;7.578;2022-12-11T09:16:12;99209.66;;;0.17;84.61
47883;BME280;37739;50.350;7.578;2022-12-11T09:18:38;99212.34;;;0.21;84.23
47883;BME280;37739;50.350;7.578;2022-12-11T09:21:08;99205.66;;;0.21;83.97
47883;BME280;37739;50.350;7.578;2022-12-11T09:23:34;99206.63;;;0.23;84.35
47883;BME280;37739;50.350;7.578;2022-12-11T09:26:03;99209.38;;;0.26;84.00
47883;BME280;37739;50.350;7.578;2022-12-11T09:28:30;99207.72;;;0.27;84.19
47883;BME280;37739;50.350;7.578;2022-12-11T09:30:55;99205.19;;;0.27;83.51
47883;BME280;37739;50.350;7.578;2022-12-11T09:33:21;99206.97;;;0.28;83.64
47883;BME280;37739;50.350;7.578;2022-12-11T09:35:56;99203.66;;;0.29;83.87
47883;BME280;37739;50.350;7.578;2022-12-11T09:38:21;99207.94;;;0.30;83.42
47883;BME280;37739;50.350;7.578;2022-12-11T09:40:47;99211.56;;;0.33;83.33
47883;BME280;37739;50.350;7.578;2022-12-11T09:46:07;99203.63;;;0.41;83.75
47883;BME280;37739;50.350;7.578;2022-12-11T09:48:37;99209.53;;;0.41;83.22
47883;BME280;37739;50.350;7.578;2022-12-11T09:51:38;99204.50;;;0.41;83.58
47883;BME280;37739;50.350;7.578;2022-12-11T09:54:04;99212.94;;;0.42;83.55
47883;BME280;37739;50.350;7.578;2022-12-11T10:02:51;99188.78;;;0.45;83.12
47883;BME280;37739;50.350;7.578;2022-12-11T10:05:42;99197.34;;;0.47;83.21
47883;BME280;37739;50.350;7.578;2022-12-11T10:13:52;99179.78;;;0.49;83.20
47883;BME280;37739;50.350;7.578;2022-12-11T10:18:57;99182.47;;;0.52;83.03
47883;BME280;37739;50.350;7.578;2022-12-11T10:21:25;99172.72;;;0.56;82.39
47883;BME280;37739;50.350;7.578;2022-12-11T10:23:59;99173.88;;;0.62;82.48
47883;BME280;37739;50.350;7.578;2022-12-11T10:26:27;99173.31;;;0.66;82.90
47883;BME280;37739;50.350;7.578;2022-12-11T10:28:59;99168.34;;;0.67;82.33
47883;BME280;37739;50.350;7.578;2022-12-11T10:31:40;99165.34;;;0.73;82.26
47883;BME280;37739;50.350;7.578;2022-12-11T10:34:14;99164.78;;;0.77;82.29
47883;BME280;37739;50.350;7.578;2022-12-11T10:36:44;99151.41;;;0.78;82.12
47883;BME280;37739;50.350;7.578;2022-12-11T10:39:19;99151.59;;;0.81;81.75
47883;BME280;37739;50.350;7.578;2022-12-11T10:41:47;99153.53;;;0.85;81.95
47883;BME280;37739;50.350;7.578;2022-12-11T10:44:21;99153.66;;;0.87;82.49
47883;BME280;37739;50.350;7.578;2022-12-11T10:47:00;99147.22;;;0.92;81.84
47883;BME280;37739;50.350;7.578;2022-12-11T10:49:28;99151.03;;;0.98;81.67
47883;BME280;37739;50.350;7.578;2022-12-11T10:51:55;99150.25;;;1.00;81.74
47883;BME280;37739;50.350;7.578;2022-12-11T10:57:26;99144.59;;;1.04;81.95
47883;BME280;37739;50.350;7.578;2022-12-11T10:59:54;99141.59;;;1.09;81.11
47883;BME280;37739;50.350;7.578;2022-12-11T11:02:38;99140.63;;;1.07;80.84
47883;BME280;37739;50.350;7.578;2022-12-11T11:05:30;99141.91;;;1.14;80.95
47883;BME280;37739;50.350;7.578;2022-12-11T11:10:37;99125.47;;;1.21;81.31
47883;BME280;37739;50.350;7.578;2022-12-11T11:13:04;99144.03;;;1.21;80.58
47883;BME280;37739;50.350;7.578;2022-12-11T11:15:30;99132.88;;;1.17;80.86
47883;BME280;37739;50.350;7.578;2022-12-11T11:18:02;99130.91;;;1.13;80.68
47883;BME280;37739;50.350;7.578;2022-12-11T11:20:33;99132.94;;;1.19;81.17
47883;BME280;37739;50.350;7.578;2022-12-11T11:23:12;99126.34;;;1.21;81.17
47883;BME280;37739;50.350;7.578;2022-12-11T11:25:38;99112.94;;;1.22;80.56
47883;BME280;37739;50.350;7.578;2022-12-11T11:28:06;99125.69;;;1.24;80.98
47883;BME280;37739;50.350;7.578;2022-12-11T11:30:40;99125.97;;;1.28;81.16
47883;BME280;37739;50.350;7.578;2022-12-11T11:33:14;99120.81;;;1.27;80.34
47883;BME280;37739;50.350;7.578;2022-12-11T11:35:59;99124.03;;;1.24;80.73
47883;BME280;37739;50.350;7.578;2022-12-11T11:38:33;99126.75;;;1.27;80.85
47883;BME280;37739;50.350;7.578;2022-12-11T11:41:11;99124.03;;;1.24;79.37
47883;BME280;37739;50.350;7.578;2022-12-11T11:43:53;99118.09;;;1.24;79.39
47883;BME280;37739;50.350;7.578;2022-12-11T11:51:43;99115.16;;;1.31;79.80
47883;BME280;37739;50.350;7.578;2022-12-11T11:56:55;99112.72;;;1.32;78.57
47883;BME280;37739;50.350;7.578;2022-12-11T11:59:25;99117.03;;;1.33;79.28
47883;BME280;37739;50.350;7.578;2022-12-11T12:01:55;99114.75;;;1.38;78.35
47883;BME280;37739;50.350;7.578;2022-12-11T12:04:23;99106.31;;;1.37;78.29
47883;BME280;37739;50.350;7.578;2022-12-11T12:18:13;99096.69;;;1.45;79.33
47883;BME280;37739;50.350;7.578;2022-12-11T12:20:47;99095.88;;;1.46;80.11
47883;BME280;37739;50.350;7.578;2022-12-11T12:23:28;99096.56;;;1.44;79.26
47883;BME280;37739;50.350;7.578;2022-12-11T12:29:27;99089.97;;;1.46;79.13
47883;BME280;37739;50.350;7.578;2022-12-11T12:32:22;99083.94;;;1.44;79.71
47883;BME280;37739;50.350;7.578;2022-12-11T12:35:05;99089.00;;;1.44;80.20
47883;BME280;37739;50.350;7.578;2022-12-11T12:40:25;99077.22;;;1.44;79.63
47883;BME280;37739;50.350;7.578;2022-12-11T12:43:03;99087.63;;;1.49;79.72
47883;BME280;37739;50.350;7.578;2022-12-11T12:45:33;99081.72;;;1.48;79.30
47883;BME280;37739;50.350;7.578;2022-12-11T12:48:03;99073.34;;;1.49;79.17
47883;BME280;37739;50.350;7.578;2022-12-11T12:50:42;99074.19;;;1.50;78.72
47883;BME280;37739;50.350;7.578;2022-12-11T12:53:13;99075.00;;;1.49;78.81
47883;BME280;37739;50.350;7.578;2022-12-11T12:55:40;99077.53;;;1.49;79.01
47883;BME280;37739;50.350;7.578;2022-12-11T12:58:21;99073.34;;;1.49;78.54
47883;BME280;37739;50.350;7.578;2022-12-11T13:00:48;99074.03;;;1.47;78.90
47883;BME280;37739;50.350;7.578;2022-12-11T13:03:19;99074.03;;;1.47;78.80
47883;BME280;37739;50.350;7.578;2022-12-11T13:06:09;99079.25;;;1.50;78.64
47883;BME280;37739;50.350;7.578;2022-12-11T13:08:42;99076.72;;;1.50;78.89
47883;BME280;37739;50.350;7.578;2022-12-11T13:11:14;99080.81;;;1.48;78.76
47883;BME280;37739;50.350;7.578;2022-12-11T13:13:48;99076.66;;;1.48;78.46
47883;BME280;37739;50.350;7.578;2022-12-11T13:16:37;99075.00;;;1.49;78.70
47883;BME280;37739;50.350;7.578;2022-12-11T13:21:58;99071.78;;;1.51;78.41
47883;BME280;37739;50.350;7.578;2022-12-11T13:24:30;99070.03;;;1.50;78.79
47883;BME280;37739;50.350;7.578;2022-12-11T13:27:10;99080.91;;;1.49;78.36
47883;BME280;37739;50.350;7.578;2022-12-11T13:29:43;99071.88;;;1.53;78.58
47883;BME280;37739;50.350;7.578;2022-12-11T13:34:54;99067.97;;;1.58;78.78
47883;BME280;37739;50.350;7.578;2022-12-11T13:37:31;99065.00;;;1.65;79.19
47883;BME280;37739;50.350;7.578;2022-12-11T13:39:59;99070.50;;;1.58;78.22
47883;BME280;37739;50.350;7.578;2022-12-11T13:42:37;99088.31;;;1.46;78.47
47883;BME280;37739;50.350;7.578;2022-12-11T13:45:14;99091.53;;;1.44;78.89
47883;BME280;37739;50.350;7.578;2022-12-11T13:47:42;99100.88;;;1.45;78.90
47883;BME280;37739;50.350;7.578;2022-12-11T13:50:18;99101.63;;;1.44;78.00
47883;BME280;37739;50.350;7.578;2022-12-11T13:52:55;99110.09;;;1.44;78.15
47883;BME280;37739;50.350;7.578;2022-12-11T13:55:32;99100.88;;;1.45;78.04
47883;BME280;37739;50.350;7.578;2022-12-11T13:58:00;99101.94;;;1.48;77.89
47883;BME280;37739;50.350;7.578;2022-12-11T14:00:30;99100.94;;;1.46;77.86
47883;BME280;37739;50.350;7.578;2022-12-11T14:02:59;99101.13;;;1.49;78.34
47883;BME280;37739;50.350;7.578;2022-12-11T14:05:26;99109.69;;;1.51;78.24
47883;BME280;37739;50.350;7.578;2022-12-11T14:07:54;99102.91;;;1.50;78.70
47883;BME280;37739;50.350;7.578;2022-12-11T14:10:23;99101.13;;;1.49;78.67
47883;BME280;37739;50.350;7.578;2022-12-11T14:15:29;99114.66;;;1.36;77.79
47883;BME280;37739;50.350;7.578;2022-12-11T14:17:55;99115.06;;;1.43;78.71
47883;BME280;37739;50.350;7.578;2022-12-11T14:20:26;99111.94;;;1.47;78.56
47883;BME280;37739;50.350;7.578;2022-12-11T14:23:07;99108.63;;;1.48;78.18
47883;BME280;37739;50.350;7.578;2022-12-11T14:25:38;99117.59;;;1.43;77.89
47883;BME280;37739;50.350;7.578;2022-12-11T14:28:14;99112.56;;;1.29;77.93
47883;BME280;37739;50.350;7.578;2022-12-11T14:30:45;99117.19;;;1.36;78.31
47883;BME280;37739;50.350;7.578;2022-12-11T14:33:11;99110.88;;;1.43;78.61
47883;BME280;37739;50.350;7.578;2022-12-11T14:35:40;99125.34;;;1.46;78.40